Time;durP1;ratioP1;P1;durP2;ratioP2;P2;SDS_P1;SDS_P2;PMS_P1;PMS_P2;Temp;Humidity;BMP_temperature;BMP_pressure;BME280_temperature;BME280_humidity;BME280_pressure;Samples;Min_cycle;Max_cycle;Signal;HPM_P1;HPM_P2
2022/11/18 00:01:19;;;;;;;97.78;47.45;;;;;;;8.03;100.00;99015.47;5010525;28;20125;-67
2022/11/18 00:03:46;;;;;;;86.22;50.35;;;;;;;8.01;100.00;98991.09;5009880;28;20034;-67
2022/11/18 00:06:19;;;;;;;80.50;47.22;;;;;;;8.27;100.00;99039.16;5010960;28;20065;-67
2022/11/18 00:08:45;;;;;;;80.72;48.67;;;;;;;8.21;100.00;99036.81;4998086;28;20035;-67
2022/11/18 00:14:17;;;;;;;74.38;46.47;;;;;;;8.12;100.00;99027.81;4991098;28;20056;-67
2022/11/18 00:14:17;;;;;;;65.50;45.00;;;;;;;8.36;100.00;99034.63;4990763;28;20058;-66
2022/11/18 00:16:43;;;;;;;67.50;46.33;;;;;;;8.16;100.00;99031.88;4989563;28;20046;-67
2022/11/18 00:19:09;;;;;;;77.47;46.47;;;;;;;8.05;100.00;99010.34;4989337;28;20022;-67
2022/11/18 00:21:34;;;;;;;71.10;46.67;;;;;;;8.06;100.00;99014.56;4990846;28;20026;-67
2022/11/18 00:24:00;;;;;;;70.43;47.65;;;;;;;8.29;100.00;99040.78;4990676;28;20045;-67
2022/11/18 00:26:25;;;;;;;70.35;46.95;;;;;;;8.38;100.00;99042.16;4990646;28;20042;-67
2022/11/18 00:28:50;;;;;;;66.57;45.40;;;;;;;8.21;100.00;98998.84;4990784;28;20448;-67
2022/11/18 00:31:16;;;;;;;61.22;45.00;;;;;;;8.40;100.00;99033.63;4991277;28;20027;-67
2022/11/18 00:33:41;;;;;;;59.05;43.58;;;;;;;8.36;100.00;99029.56;4990845;28;20033;-67
2022/11/18 00:36:10;;;;;;;56.67;43.05;;;;;;;8.10;100.00;98990.81;4990771;28;20034;-67
2022/11/18 00:38:35;;;;;;;54.60;41.85;;;;;;;8.01;100.00;98991.09;4990948;28;20054;-67
2022/11/18 00:41:02;;;;;;;53.65;42.15;;;;;;;7.92;100.00;99007.44;4990768;28;20125;-67
2022/11/18 00:43:28;;;;;;;49.28;39.47;;;;;;;8.09;100.00;98995.03;4990586;28;20489;-66
2022/11/18 00:45:54;;;;;;;51.83;41.13;;;;;;;8.10;100.00;99036.34;4990621;28;20051;-67
2022/11/18 00:48:20;;;;;;;58.40;43.22;;;;;;;7.81;100.00;98990.06;4990243;28;20029;-66
2022/11/18 00:51:05;;;;;;;53.22;41.30;;;;;;;7.96;100.00;99034.28;4990626;28;20485;-66
2022/11/18 00:53:30;;;;;;;59.83;44.53;;;;;;;7.86;100.00;99035.47;5005498;28;20076;-66
2022/11/18 00:55:56;;;;;;;64.18;46.47;;;;;;;7.89;100.00;99033.66;4990688;28;20493;-66
2022/11/18 00:58:21;;;;;;;57.53;43.42;;;;;;;8.05;100.00;99043.25;4990564;28;20412;-66
2022/11/18 01:00:50;;;;;;;65.03;45.40;;;;;;;7.67;100.00;99017.50;4990620;28;20030;-67
2022/11/18 01:03:16;;;;;;;56.97;44.65;;;;;;;7.95;100.00;99034.31;4989975;28;20030;-67
2022/11/18 01:05:42;;;;;;;67.07;44.55;;;;;;;7.77;100.00;99043.31;4990121;28;20161;-67
2022/11/18 01:08:09;;;;;;;64.32;41.25;;;;;;;7.63;100.00;99046.28;4990424;28;20046;-67
2022/11/18 01:10:37;;;;;;;58.95;43.47;;;;;;;7.66;100.00;99050.44;4990498;28;20509;-66
2022/11/18 01:13:19;;;;;;;62.22;43.88;;;;;;;7.61;100.00;99024.44;4990408;28;20412;-66
2022/11/18 01:16:05;;;;;;;52.78;39.83;;;;;;;7.72;100.00;99053.59;4992727;28;20417;-67
2022/11/18 01:18:30;;;;;;;47.58;38.85;;;;;;;7.85;100.00;99064.16;4993538;28;20055;-67
2022/11/18 01:21:02;;;;;;;56.22;39.60;;;;;;;7.57;100.00;99059.13;4993561;28;20039;-67
2022/11/18 01:23:28;;;;;;;77.72;39.17;;;;;;;7.21;100.00;99031.63;4993824;28;20030;-67
2022/11/18 01:25:53;;;;;;;55.90;38.78;;;;;;;7.37;100.00;99058.91;4993884;28;20413;-67
2022/11/18 01:28:19;;;;;;;84.45;40.20;;;;;;;7.21;100.00;99044.25;4993795;28;20037;-66
2022/11/18 01:30:45;;;;;;;55.92;38.20;;;;;;;6.89;100.00;99012.34;4993731;28;20038;-67
2022/11/18 01:33:11;;;;;;;120.80;40.42;;;;;;;6.49;100.00;98936.91;4994236;28;20035;-66
2022/11/18 01:35:38;;;;;;;54.90;37.10;;;;;;;7.20;100.00;99050.16;4993581;28;20064;-67
2022/11/18 01:38:05;;;;;;;49.28;35.72;;;;;;;7.22;100.00;99044.19;5008414;28;20085;-66
2022/11/18 01:40:32;;;;;;;58.45;36.47;;;;;;;7.23;100.00;99035.72;4993785;28;20094;-66
2022/11/18 01:42:57;;;;;;;59.47;38.85;;;;;;;6.83;100.00;98990.59;4992087;28;20433;-68
2022/11/18 01:45:35;;;;;;;48.55;36.45;;;;;;;7.01;100.00;99012.00;4993583;28;20030;-67
2022/11/18 01:48:10;;;;;;;55.72;36.08;;;;;;;7.38;100.00;99045.41;4993974;28;20041;-67
2022/11/18 01:50:40;;;;;;;73.95;37.47;;;;;;;6.93;100.00;98998.75;4993494;28;20125;-67
2022/11/18 01:53:10;;;;;;;54.33;34.95;;;;;;;6.99;100.00;98986.75;4993582;28;20098;-67
2022/11/18 01:55:40;;;;;;;97.05;37.67;;;;;;;7.15;100.00;99031.78;4993365;28;20034;-67
2022/11/18 01:58:14;;;;;;;64.18;35.20;;;;;;;7.03;100.00;99040.56;4992140;28;20444;-67
2022/11/18 02:00:40;;;;;;;50.28;34.28;;;;;;;6.79;100.00;98956.19;4993615;28;20032;-67
2022/11/18 02:03:06;;;;;;;65.55;34.17;;;;;;;7.26;100.00;99032.28;4992255;28;20096;-67
2022/11/18 02:05:33;;;;;;;155.55;39.75;;;;;;;6.90;100.00;98988.72;4991835;28;20481;-67
2022/11/18 02:08:00;;;;;;;279.83;42.50;;;;;;;6.98;100.00;98992.69;4993214;28;20113;-67
2022/11/18 02:10:25;;;;;;;331.70;42.90;;;;;;;7.28;100.00;99038.13;5007895;28;20534;-67
2022/11/18 02:12:53;;;;;;;209.60;40.10;;;;;;;7.17;100.00;99002.25;4992682;28;20038;-67
2022/11/18 02:15:25;;;;;;;400.67;49.10;;;;;;;7.06;100.00;98992.47;4992981;28;20030;-68
2022/11/18 02:18:08;;;;;;;261.98;40.17;;;;;;;7.57;100.00;99046.47;4992619;28;20058;-67
2022/11/18 02:20:41;;;;;;;330.80;42.50;;;;;;;7.35;100.00;98997.44;4992913;28;20064;-67
2022/11/18 02:23:15;;;;;;;583.13;50.65;;;;;;;7.71;100.00;99046.88;4992970;28;20038;-67
2022/11/18 02:26:24;;;;;;;338.23;50.03;;;;;;;7.30;100.00;99016.16;4992798;28;20076;-67
2022/11/18 02:29:05;;;;;;;497.55;52.67;;;;;;;7.74;100.00;99048.50;4992971;28;20034;-67
2022/11/18 02:31:56;;;;;;;119.00;30.02;;;;;;;7.79;100.00;99056.75;4992427;28;20034;-67
2022/11/18 02:34:24;;;;;;;120.07;38.83;;;;;;;7.91;100.00;99048.78;5007696;28;20038;-68
2022/11/18 02:36:53;;;;;;;137.48;38.78;;;;;;;7.87;100.00;99044.69;4992463;28;20026;-69
2022/11/18 02:39:27;;;;;;;189.43;42.08;;;;;;;7.33;100.00;98963.81;4992350;28;20136;-67
2022/11/18 02:41:56;;;;;;;584.88;60.78;;;;;;;7.44;100.00;99006.47;5007579;28;20481;-67
2022/11/18 02:44:25;;;;;;;293.55;57.13;;;;;;;7.63;100.00;99037.88;4992544;28;20030;-67
2022/11/18 02:46:57;;;;;;;139.40;47.22;;;;;;;7.52;100.00;99007.03;4992980;28;20068;-67
2022/11/18 02:49:29;;;;;;;;;;;;;;;7.76;100.00;99056.88;4993038;28;20567;-68
2022/11/18 02:51:56;;;;;;;134.07;39.03;;;;;;;7.34;100.00;99005.09;5007387;28;19920;-67
2022/11/18 02:54:23;;;;;;;183.68;39.10;;;;;;;7.51;100.00;99061.00;4992118;28;20428;-67
2022/11/18 02:56:51;;;;;;;242.10;43.38;;;;;;;7.61;100.00;99057.31;5007023;28;20026;-67
2022/11/18 02:59:18;;;;;;;140.48;40.53;;;;;;;7.74;100.00;99067.00;4992323;28;20030;-67
2022/11/18 03:01:43;;;;;;;227.20;43.50;;;;;;;7.29;100.00;98984.19;5007054;28;20034;-68
2022/11/18 03:04:09;;;;;;;201.25;41.13;;;;;;;7.45;100.00;99039.28;5006984;28;20053;-67
2022/11/18 03:06:39;;;;;;;385.13;45.80;;;;;;;7.71;100.00;99066.28;4992281;28;20035;-67
2022/11/18 03:09:24;;;;;;;276.15;43.80;;;;;;;7.18;100.00;99016.53;4992393;28;20113;-67
2022/11/18 03:11:55;;;;;;;217.13;42.58;;;;;;;7.42;100.00;99069.72;4988698;28;20034;-68
2022/11/18 03:14:24;;;;;;;254.93;43.30;;;;;;;7.32;100.00;99047.28;4991926;28;20056;-68
2022/11/18 03:16:55;;;;;;;314.45;46.20;;;;;;;7.36;100.00;99056.44;4991528;28;20508;-68
2022/11/18 03:19:23;;;;;;;508.13;55.55;;;;;;;7.40;100.00;99053.75;4991644;28;20026;-67
2022/11/18 03:22:18;;;;;;;272.73;44.88;;;;;;;7.12;100.00;99054.59;4991844;28;20042;-67
2022/11/18 03:24:58;;;;;;;486.30;51.97;;;;;;;7.17;100.00;99028.31;4992086;28;20034;-67
2022/11/18 03:27:33;;;;;;;297.05;48.20;;;;;;;7.10;100.00;99011.72;4991899;28;20037;-68
2022/11/18 03:30:07;;;;;;;208.27;40.97;;;;;;;7.25;100.00;99025.59;4991962;28;20045;-67
2022/11/18 03:32:39;;;;;;;246.95;40.42;;;;;;;7.12;100.00;99059.66;4991412;28;20038;-67
2022/11/18 03:35:10;;;;;;;437.58;53.08;;;;;;;7.07;100.00;99044.66;4991661;28;20168;-67
2022/11/18 03:37:37;;;;;;;260.60;41.77;;;;;;;7.22;100.00;99063.59;5006089;28;20755;-67
2022/11/18 03:40:11;;;;;;;206.07;40.08;;;;;;;7.10;100.00;99071.50;4990503;28;20036;-67
2022/11/18 03:42:46;;;;;;;80.80;32.92;;;;;;;6.91;100.00;99040.91;4991446;28;20034;-68
2022/11/18 03:45:42;;;;;;;144.80;35.88;;;;;;;7.24;100.00;99082.06;4991556;28;20033;-67
2022/11/18 03:48:21;;;;;;;562.10;50.47;;;;;;;7.01;100.00;99090.31;4990203;28;20113;-68
2022/11/18 03:50:54;;;;;;;94.90;33.25;;;;;;;7.06;100.00;99040.47;4991268;28;20425;-67
2022/11/18 03:53:21;;;;;;;235.43;40.60;;;;;;;7.09;100.00;99042.88;4991348;28;20042;-68
2022/11/18 03:55:52;;;;;;;294.75;42.78;;;;;;;7.10;100.00;99092.56;4990855;28;20489;-68
2022/11/18 03:58:27;;;;;;;361.95;45.08;;;;;;;6.88;100.00;99078.88;4991283;28;20027;-68
2022/11/18 04:01:03;;;;;;;197.38;42.90;;;;;;;7.00;100.00;99091.16;4991019;28;20105;-68
2022/11/18 04:03:28;;;;;;;214.98;42.85;;;;;;;6.96;100.00;99085.38;4991442;28;20619;-68
2022/11/18 04:06:08;;;;;;;294.17;43.85;;;;;;;6.61;100.00;99045.13;4991407;28;20125;-67
2022/11/18 04:08:38;;;;;;;67.63;34.00;;;;;;;6.65;100.00;99035.75;4990564;28;20168;-70
2022/11/18 04:14:06;;;;;;;172.55;36.28;;;;;;;7.14;100.00;99004.84;4991506;28;20507;-70
2022/11/18 04:16:39;;;;;;;65.38;28.92;;;;;;;7.07;100.00;99089.31;4991094;28;20386;-70
2022/11/18 04:19:04;;;;;;;75.15;29.30;;;;;;;6.77;100.00;99036.22;4991669;28;20094;-69
2022/11/18 04:21:30;;;;;;;104.80;30.95;;;;;;;6.92;100.00;99090.56;4998641;28;20109;-69
2022/11/18 04:23:55;;;;;;;93.90;30.58;;;;;;;6.89;100.00;99096.50;5011017;28;20022;-69
2022/11/18 04:26:20;;;;;;;223.50;35.95;;;;;;;6.85;100.00;99099.97;5010361;28;20072;-69
2022/11/18 04:28:46;;;;;;;61.67;28.48;;;;;;;6.77;100.00;99086.72;5010597;28;20034;-69
2022/11/18 04:31:11;;;;;;;65.30;28.50;;;;;;;6.58;100.00;99067.06;5011056;28;20062;-67
2022/11/18 04:33:36;;;;;;;130.15;29.67;;;;;;;6.24;100.00;99036.84;5009187;28;20488;-66
2022/11/18 04:36:02;;;;;;;65.88;27.83;;;;;;;6.85;100.00;99099.19;5010208;28;20041;-67
2022/11/18 04:38:28;;;;;;;38.40;27.30;;;;;;;6.90;100.00;99083.03;5010010;28;20058;-69
2022/11/18 04:40:53;;;;;;;43.63;27.02;;;;;;;6.96;100.00;99097.19;5009056;28;20037;-67
2022/11/18 04:43:18;;;;;;;42.55;25.92;;;;;;;6.91;100.00;99093.97;5010265;28;20488;-68
2022/11/18 04:45:44;;;;;;;32.85;24.95;;;;;;;6.69;100.00;99071.00;5010345;28;20116;-66
2022/11/18 04:48:09;;;;;;;53.58;26.75;;;;;;;6.77;100.00;99112.00;5010357;28;20026;-67
2022/11/18 04:50:34;;;;;;;45.13;26.73;;;;;;;6.43;100.00;99080.94;5012572;28;20389;-66
2022/11/18 04:53:00;;;;;;;37.15;23.98;;;;;;;6.69;100.00;99081.09;5014247;28;20033;-67
2022/11/18 04:55:26;;;;;;;33.15;23.48;;;;;;;7.06;100.00;99133.94;5014141;28;20491;-67
2022/11/18 04:57:51;;;;;;;32.58;24.42;;;;;;;7.01;100.00;99136.59;5014038;28;20044;-66
2022/11/18 05:00:17;;;;;;;34.92;24.27;;;;;;;6.84;100.00;99100.88;5013032;28;20452;-68
2022/11/18 05:02:42;;;;;;;61.67;28.55;;;;;;;6.75;100.00;99139.00;5013494;28;20037;-67
2022/11/18 05:05:08;;;;;;;42.95;27.15;;;;;;;6.44;100.00;99090.16;5013890;28;20030;-67
2022/11/18 05:07:33;;;;;;;43.15;27.10;;;;;;;6.87;100.00;99125.22;5014183;28;20473;-68
2022/11/18 05:09:58;;;;;;;246.15;30.17;;;;;;;6.78;100.00;99130.50;5013241;28;20408;-69
2022/11/18 05:15:08;;;;;;;142.95;29.02;;;;;;;6.47;100.00;99135.53;5013749;28;20044;-67
2022/11/18 05:17:34;;;;;;;124.22;31.30;;;;;;;6.39;100.00;99118.91;5012258;28;20030;-71
2022/11/18 05:20:00;;;;;;;224.10;35.15;;;;;;;6.29;100.00;99072.91;5012650;28;20056;-69
2022/11/18 05:22:25;;;;;;;150.77;30.08;;;;;;;6.73;100.00;99107.91;5013730;28;20120;-70
2022/11/18 05:24:51;;;;;;;141.82;29.30;;;;;;;6.41;100.00;99062.50;5012117;28;20104;-69
2022/11/18 05:27:16;;;;;;;235.20;32.55;;;;;;;6.39;100.00;99086.94;5011682;28;20493;-69
2022/11/18 05:29:42;;;;;;;257.73;35.70;;;;;;;6.54;100.00;99129.44;5013524;28;20026;-69
2022/11/18 05:32:08;;;;;;;141.65;30.38;;;;;;;6.59;100.00;99120.06;5013241;28;20502;-69
2022/11/18 05:34:33;;;;;;;64.55;28.63;;;;;;;6.46;100.00;99095.16;5006292;28;20022;-69
2022/11/18 05:36:59;;;;;;;75.47;28.38;;;;;;;6.10;100.00;99061.63;5005333;28;20073;-68
2022/11/18 05:39:24;;;;;;;55.40;25.27;;;;;;;6.52;100.00;99123.59;5013404;28;20060;-68
2022/11/18 05:44:34;;;;;;;134.70;26.45;;;;;;;6.99;100.00;99135.81;5025494;28;20036;-69
2022/11/18 05:46:59;;;;;;;36.47;22.95;;;;;;;7.73;100.00;99095.72;5012335;28;20025;-70
2022/11/18 05:49:25;;;;;;;69.43;23.75;;;;;;;6.98;100.00;99125.75;5013338;28;20037;-69
2022/11/18 05:51:50;;;;;;;107.85;24.90;;;;;;;6.85;100.00;99145.44;5013570;28;20116;-70
2022/11/18 05:54:18;;;;;;;193.32;27.08;;;;;;;6.14;100.00;99111.94;5012161;28;20029;-70
2022/11/18 05:56:44;;;;;;;171.73;25.63;;;;;;;6.37;100.00;99159.34;5012892;28;20030;-70
2022/11/18 05:59:10;;;;;;;138.73;27.52;;;;;;;6.42;100.00;99161.75;5012647;28;20393;-70
2022/11/18 06:01:42;;;;;;;165.27;27.77;;;;;;;5.98;100.00;99112.38;5012033;28;20033;-69
2022/11/18 06:04:28;;;;;;;173.65;25.95;;;;;;;5.88;100.00;99086.50;5011979;28;20038;-69
2022/11/18 06:07:03;;;;;;;65.82;23.20;;;;;;;6.49;100.00;99169.13;5012885;28;20068;-70
2022/11/18 06:09:31;;;;;;;107.53;27.23;;;;;;;6.43;100.00;99164.25;5011020;28;20037;-69
2022/11/18 06:11:59;;;;;;;38.10;23.65;;;;;;;6.79;100.00;99168.34;5012189;28;20113;-69
2022/11/18 06:14:30;;;;;;;63.67;23.77;;;;;;;6.62;100.00;99167.97;5012189;28;20032;-68
2022/11/18 06:17:01;;;;;;;80.85;19.40;;;;;;;6.51;100.00;99172.44;5012327;28;20033;-69
2022/11/18 06:19:26;;;;;;;91.40;25.95;;;;;;;6.60;100.00;99172.22;5011971;28;20072;-68
2022/11/18 06:21:52;;;;;;;158.43;27.70;;;;;;;6.36;100.00;99113.97;5012201;28;20057;-69
2022/11/18 06:24:18;;;;;;;270.05;33.17;;;;;;;6.79;100.00;99170.88;5010945;28;20403;-69
2022/11/18 06:26:45;;;;;;;144.18;30.17;;;;;;;7.05;100.00;99165.16;5012124;28;20034;-69
2022/11/18 06:29:15;;;;;;;268.30;33.67;;;;;;;6.96;100.00;99178.84;5012592;28;20484;-69
2022/11/18 06:31:40;;;;;;;270.30;31.48;;;;;;;6.74;100.00;99147.44;5011998;28;20029;-69
2022/11/18 06:34:05;;;;;;;277.60;35.80;;;;;;;7.37;100.00;99159.22;5012299;28;20539;-69
2022/11/18 06:36:31;;;;;;;273.08;32.42;;;;;;;6.89;100.00;99111.66;5012574;28;20056;-69
2022/11/18 06:39:01;;;;;;;359.27;34.60;;;;;;;6.95;100.00;99111.50;5012092;28;20049;-68
2022/11/18 06:41:28;;;;;;;126.53;29.63;;;;;;;7.88;100.00;99162.75;5012040;28;20072;-68
2022/11/18 06:43:53;;;;;;;130.55;29.80;;;;;;;7.87;100.00;99156.00;5010362;28;20025;-69
2022/11/18 06:49:03;;;;;;;100.57;30.75;;;;;;;8.49;100.00;99109.31;5011948;28;20100;-68
2022/11/18 06:51:28;;;;;;;95.82;26.85;;;;;;;8.18;100.00;99110.34;5012386;28;20037;-68
2022/11/18 06:53:54;;;;;;;64.28;25.33;;;;;;;8.56;100.00;99133.53;5010266;28;20096;-68
2022/11/18 06:56:21;;;;;;;70.55;26.23;;;;;;;8.36;100.00;99054.06;5010267;28;20113;-68
2022/11/18 06:58:51;;;;;;;50.13;26.58;;;;;;;8.99;100.00;99127.84;5012150;28;20121;-69
2022/11/18 07:01:20;;;;;;;86.80;32.28;;;;;;;8.51;100.00;99097.41;5011570;28;20472;-69
2022/11/18 07:03:46;;;;;;;53.78;29.25;;;;;;;8.99;100.00;99137.13;5011909;28;20037;-69
2022/11/18 07:06:16;;;;;;;72.18;26.92;;;;;;;8.80;100.00;99133.56;5010381;28;20068;-69
2022/11/18 07:08:42;;;;;;;71.68;24.40;;;;;;;8.32;100.00;99052.50;5010387;28;20038;-69
2022/11/18 07:11:10;;;;;;;48.17;24.65;;;;;;;9.17;100.00;99090.84;5010566;28;20519;-69
2022/11/18 07:13:36;;;;;;;58.75;29.15;;;;;;;9.37;100.00;99101.91;5010304;28;20038;-69
2022/11/18 07:16:03;;;;;;;72.22;48.55;;;;;;;9.43;100.00;99121.13;5011578;28;20049;-69
2022/11/18 07:18:33;;;;;;;47.30;32.95;;;;;;;9.13;100.00;99069.84;5011564;28;20033;-70
2022/11/18 07:21:03;;;;;;;49.88;23.38;;;;;;;9.25;100.00;99087.13;5011477;28;20037;-69
2022/11/18 07:23:30;;;;;;;45.20;26.02;;;;;;;9.22;100.00;99076.28;5011336;28;20029;-69
2022/11/18 07:25:55;;;;;;;41.20;26.08;;;;;;;9.53;100.00;99086.91;5011439;28;20476;-69
2022/11/18 07:28:21;;;;;;;44.78;26.05;;;;;;;9.57;100.00;99121.44;5010152;28;20034;-69
2022/11/18 07:30:46;;;;;;;42.15;25.95;;;;;;;9.63;100.00;99084.88;5011078;28;20089;-69
2022/11/18 07:33:11;;;;;;;36.78;23.67;;;;;;;10.04;100.00;99110.25;5010923;28;20037;-70
2022/11/18 07:35:37;;;;;;;41.28;24.13;;;;;;;9.94;100.00;99100.56;5011050;28;20109;-69
2022/11/18 07:38:02;;;;;;;38.10;24.50;;;;;;;9.70;100.00;99071.91;5011293;28;20077;-69
2022/11/18 07:40:27;;;;;;;38.55;24.23;;;;;;;9.77;100.00;99065.69;5010733;28;20117;-73
2022/11/18 07:42:53;;;;;;;37.38;22.70;;;;;;;9.75;100.00;99028.53;5011078;28;20030;-68
2022/11/18 07:45:18;;;;;;;28.52;20.77;;;;;;;10.39;100.00;99104.63;5011221;28;20125;-69
2022/11/18 07:47:44;;;;;;;30.58;20.90;;;;;;;10.38;100.00;99064.88;5011231;28;20030;-69
2022/11/18 07:50:09;;;;;;;30.50;19.67;;;;;;;10.51;100.00;99082.97;5011171;28;20114;-68
2022/11/18 07:52:35;;;;;;;41.05;19.42;;;;;;;10.80;100.00;99104.59;5010641;28;20804;-69
2022/11/18 07:55:00;;;;;;;44.13;20.70;;;;;;;10.84;100.00;99101.03;5011267;28;20030;-69
2022/11/18 07:57:25;;;;;;;68.38;20.40;;;;;;;10.94;100.00;99097.19;5011045;28;20038;-69
2022/11/18 07:59:51;;;;;;;40.88;20.10;;;;;;;11.04;100.00;99103.53;5010510;28;20041;-69
2022/11/18 08:02:16;;;;;;;49.28;20.05;;;;;;;10.59;100.00;99082.63;5010651;28;20120;-69
2022/11/18 08:04:41;;;;;;;46.53;20.77;;;;;;;10.90;100.00;99093.13;5010820;28;20022;-70
2022/11/18 08:07:10;;;;;;;68.30;22.90;;;;;;;10.66;100.00;99061.13;5010803;28;20477;-69
2022/11/18 08:09:35;;;;;;;76.85;21.83;;;;;;;10.78;100.00;99122.47;5010317;28;20034;-70
2022/11/18 08:12:01;;;;;;;44.35;19.65;;;;;;;10.66;100.00;99063.69;5010656;28;20435;-69
2022/11/18 08:14:27;;;;;;;63.45;22.25;;;;;;;10.80;100.00;99114.75;5010371;28;20421;-68
2022/11/18 08:16:53;;;;;;;76.10;23.38;;;;;;;10.74;100.00;99076.88;5010522;28;20022;-68
2022/11/18 08:19:19;;;;;;;51.78;21.70;;;;;;;10.73;100.00;99082.88;5009197;28;20405;-68
2022/11/18 08:21:44;;;;;;;39.53;22.23;;;;;;;10.58;100.00;99083.53;5009974;28;20029;-68
2022/11/18 08:24:10;;;;;;;42.80;23.65;;;;;;;10.74;100.00;99076.88;5008969;28;20033;-68
2022/11/18 08:26:35;;;;;;;89.70;22.88;;;;;;;10.70;100.00;99133.81;5009402;28;20022;-69
2022/11/18 08:29:00;;;;;;;57.25;24.67;;;;;;;10.65;100.00;99098.47;5010170;28;20507;-69
2022/11/18 08:31:28;;;;;;;57.63;26.00;;;;;;;11.02;100.00;99105.31;5009820;28;20045;-69
2022/11/18 08:33:59;;;;;;;65.00;27.65;;;;;;;11.03;100.00;99101.91;5010401;28;20034;-68
2022/11/18 08:36:28;;;;;;;52.45;27.05;;;;;;;10.90;100.00;99057.53;5009037;28;20026;-69
2022/11/18 08:38:55;;;;;;;69.57;25.10;;;;;;;10.82;100.00;99055.34;5010430;28;20112;-69
2022/11/18 08:41:29;;;;;;;71.15;28.98;;;;;;;11.36;100.00;99120.75;5009174;28;20570;-68
2022/11/18 08:43:55;;;;;;;68.30;32.38;;;;;;;11.40;100.00;99108.69;5010224;28;20523;-69
2022/11/18 08:46:20;;;;;;;67.82;33.95;;;;;;;11.11;100.00;99070.13;5010254;28;20026;-68
2022/11/18 08:48:46;;;;;;;69.50;33.22;;;;;;;11.47;100.00;99108.34;5010326;28;20026;-68
2022/11/18 08:51:12;;;;;;;77.97;38.25;;;;;;;11.34;100.00;99066.56;5010354;28;20030;-68
2022/11/18 08:53:38;;;;;;;95.15;37.60;;;;;;;11.37;100.00;99116.47;5010703;28;20046;-69
2022/11/18 08:56:04;;;;;;;87.25;39.42;;;;;;;11.14;100.00;99076.81;5010032;28;20397;-68
2022/11/18 08:58:31;;;;;;;98.25;43.92;;;;;;;10.95;100.00;99042.91;5010318;28;20030;-68
2022/11/18 09:00:56;;;;;;;101.63;44.53;;;;;;;11.28;100.00;99115.16;5010355;28;20080;-68
2022/11/18 09:03:22;;;;;;;67.63;36.85;;;;;;;11.47;100.00;99110.09;5008572;28;20038;-68
2022/11/18 09:05:48;;;;;;;93.00;43.38;;;;;;;11.22;100.00;99064.56;5010273;28;20044;-68
2022/11/18 09:08:14;;;;;;;117.30;46.30;;;;;;;11.44;100.00;99100.88;5010072;28;20040;-68
2022/11/18 09:10:40;;;;;;;97.05;43.72;;;;;;;11.37;100.00;99096.94;5010268;28;20057;-68
2022/11/18 09:13:06;;;;;;;92.63;43.05;;;;;;;11.24;100.00;99047.50;5010226;28;20070;-68
2022/11/18 09:15:31;;;;;;;87.65;41.58;;;;;;;11.57;100.00;99091.75;5008708;28;20034;-67
2022/11/18 09:17:57;;;;;;;95.70;44.67;;;;;;;11.48;100.00;99079.47;5009957;28;20033;-68
2022/11/18 09:20:22;;;;;;;88.75;43.72;;;;;;;11.31;100.00;99031.06;5009870;28;20037;-68
2022/11/18 09:22:48;;;;;;;91.90;44.20;;;;;;;11.80;100.00;99099.19;5010102;28;20022;-68
2022/11/18 09:25:13;;;;;;;88.60;43.78;;;;;;;11.88;100.00;99099.66;5009799;28;20034;-68
2022/11/18 09:27:39;;;;;;;98.65;46.90;;;;;;;11.97;100.00;99104.31;5010206;28;20493;-68
2022/11/18 09:30:05;;;;;;;101.90;48.17;;;;;;;11.69;100.00;99065.75;5008666;28;20030;-68
2022/11/18 09:32:32;;;;;;;71.88;38.90;;;;;;;11.53;100.00;99064.00;5008327;28;20049;-69
2022/11/18 09:34:57;;;;;;;59.13;34.75;;;;;;;11.81;100.00;99107.63;5009787;28;20093;-69
2022/11/18 09:37:23;;;;;;;86.85;34.15;;;;;;;11.48;100.00;99050.63;5011566;28;20472;-69
2022/11/18 09:39:48;;;;;;;71.93;35.88;;;;;;;11.53;100.00;99051.28;5011865;28;20509;-69
2022/11/18 09:42:22;;;;;;;62.58;35.85;;;;;;;11.97;100.00;99096.66;5013278;28;20504;-70
2022/11/18 09:45:00;;;;;;;71.30;39.65;;;;;;;12.08;100.00;99088.53;5013176;28;20056;-69
2022/11/18 09:47:29;;;;;;;54.47;32.90;;;;;;;11.88;100.00;99053.81;5013272;28;20076;-70
2022/11/18 09:49:57;;;;;;;69.72;36.55;;;;;;;12.05;100.00;99078.47;5013025;28;20041;-69
2022/11/18 09:52:30;;;;;;;76.18;43.45;;;;;;;11.90;100.00;99046.94;5012083;28;20026;-69
2022/11/18 09:54:57;;;;;;;57.75;35.17;;;;;;;12.22;100.00;99075.09;5013304;28;20049;-69
2022/11/18 09:57:47;;;;;;;73.60;44.05;;;;;;;12.21;100.00;99076.81;5012742;28;20026;-69
2022/11/18 10:00:19;;;;;;;68.38;40.22;;;;;;;12.06;100.00;99075.03;5005059;28;20072;-70
2022/11/18 10:02:51;;;;;;;;;;;;;;;12.14;100.00;99086.47;5013479;28;20488;-69
2022/11/18 10:05:24;;;;;;;74.32;43.65;;;;;;;12.17;100.00;99078.69;5013015;28;19913;-69
2022/11/18 10:08:06;;;;;;;62.78;39.08;;;;;;;12.32;100.00;99071.19;5012726;28;20038;-69
2022/11/18 10:10:57;;;;;;;53.05;35.35;;;;;;;12.36;100.00;99070.16;5013113;28;20045;-69
2022/11/18 10:13:33;;;;;;;53.05;36.70;;;;;;;12.40;100.00;99061.44;4662847;28;10001188;-67
2022/11/18 10:16:20;;;;;;;87.55;56.97;;;;;;;12.53;100.00;99053.09;5009620;28;20069;-69
2022/11/18 10:18:57;;;;;;;61.92;41.55;;;;;;;12.18;100.00;99011.53;5009550;28;20045;-68
2022/11/18 10:21:44;;;;;;;75.63;52.75;;;;;;;12.42;100.00;99049.47;5008019;28;20038;-68
2022/11/18 10:24:17;;;;;;;78.97;49.72;;;;;;;12.57;100.00;99041.84;5009143;28;20061;-68
2022/11/18 10:26:43;;;;;;;66.18;43.95;;;;;;;12.63;100.00;99035.59;4994024;28;20042;-69
2022/11/18 10:29:11;;;;;;;83.10;51.78;;;;;;;12.49;100.00;98992.16;5002876;28;20049;-67
2022/11/18 10:31:39;;;;;;;87.53;54.25;;;;;;;12.55;100.00;99004.56;4989687;28;20060;-68
2022/11/18 10:34:05;;;;;;;64.15;42.33;;;;;;;12.85;100.00;99029.31;4990176;28;20485;-70
2022/11/18 10:36:33;;;;;;;56.08;36.53;;;;;;;13.03;100.00;99042.84;5000006;28;20041;-70
2022/11/18 10:39:24;;;;;;;51.95;38.42;;;;;;;12.84;100.00;99026.81;5012193;28;20054;-68
2022/11/18 10:42:00;;;;;;;50.00;37.83;;;;;;;12.94;100.00;99022.91;5007649;28;20042;-67
2022/11/18 10:44:37;;;;;;;53.72;38.47;;;;;;;12.83;100.00;99012.44;5012038;28;20034;-68
2022/11/18 10:47:30;;;;;;;53.88;38.17;;;;;;;13.07;100.00;99027.28;5010690;28;20041;-68
2022/11/18 10:50:01;;;;;;;63.33;41.83;;;;;;;12.63;100.00;98931.91;5012215;28;20072;-69
2022/11/18 10:52:29;;;;;;;66.93;42.40;;;;;;;13.14;100.00;99014.22;5012500;28;20057;-68
2022/11/18 10:55:07;;;;;;;66.38;42.35;;;;;;;12.97;100.00;99012.53;5011537;28;20041;-68
2022/11/18 10:57:39;;;;;;;67.35;41.30;;;;;;;12.79;100.00;98967.59;5011380;28;20037;-68
2022/11/18 11:00:05;;;;;;;61.08;40.15;;;;;;;12.77;100.00;98970.25;5011076;28;20032;-68
2022/11/18 11:02:48;;;;;;;58.88;39.15;;;;;;;13.29;100.00;98993.78;5011258;28;20030;-68
2022/11/18 11:05:20;;;;;;;67.57;41.67;;;;;;;13.13;100.00;98998.09;5011481;28;20037;-68
2022/11/18 11:08:03;;;;;;;65.03;41.40;;;;;;;12.82;100.00;98949.56;5011642;28;20113;-67
2022/11/18 11:10:29;;;;;;;70.80;43.15;;;;;;;12.72;100.00;98913.53;5010038;28;20185;-67
2022/11/18 11:13:00;;;;;;;65.60;42.72;;;;;;;12.87;100.00;98951.00;5011343;28;20029;-68
2022/11/18 11:15:38;;;;;;;64.53;41.78;;;;;;;13.28;100.00;98986.22;5012063;28;20038;-68
2022/11/18 11:20:54;;;;;;;65.28;42.15;;;;;;;13.21;100.00;98918.56;5011286;28;20125;-68
2022/11/18 11:23:23;;;;;;;61.92;42.25;;;;;;;13.35;100.00;98952.59;5010099;28;20138;-67
2022/11/18 11:26:07;;;;;;;66.75;44.40;;;;;;;13.35;100.00;98950.03;5011756;28;20030;-67
2022/11/18 11:29:03;;;;;;;64.03;43.40;;;;;;;13.61;100.00;98948.56;5010068;28;20037;-67
2022/11/18 11:32:03;;;;;;;59.88;42.45;;;;;;;13.73;100.00;98940.22;5011346;28;20041;-67
2022/11/18 11:34:57;;;;;;;66.53;44.00;;;;;;;13.29;100.00;98912.09;5009485;28;20291;-67
2022/11/18 11:37:36;;;;;;;60.60;42.67;;;;;;;13.14;100.00;98841.50;5009737;28;20558;-68